sensor_id;sensor_type;location;lat;lon;timestamp;P1;durP1;ratioP1;P2;durP2;ratioP2
22468;SDS011;11401;50.792;4.352;2024-03-02T00:00:39;2.97;;;1.35;;
22468;SDS011;11401;50.792;4.352;2024-03-02T00:03:07;1.55;;;1.40;;
22468;SDS011;11401;50.792;4.352;2024-03-02T00:05:36;1.40;;;1.30;;
22468;SDS011;11401;50.792;4.352;2024-03-02T00:08:03;1.65;;;1.55;;
22468;SDS011;11401;50.792;4.352;2024-03-02T00:10:35;1.60;;;1.50;;
22468;SDS011;11401;50.792;4.352;2024-03-02T00:13:06;1.48;;;1.38;;
22468;SDS011;11401;50.792;4.352;2024-03-02T00:15:40;1.52;;;1.42;;
22468;SDS011;11401;50.792;4.352;2024-03-02T00:18:18;1.20;;;1.20;;
22468;SDS011;11401;50.792;4.352;2024-03-02T00:20:47;1.35;;;1.20;;
22468;SDS011;11401;50.792;4.352;2024-03-02T00:23:15;1.23;;;1.20;;
22468;SDS011;11401;50.792;4.352;2024-03-02T00:25:44;1.40;;;1.30;;
22468;SDS011;11401;50.792;4.352;2024-03-02T00:28:20;1.48;;;1.27;;
22468;SDS011;11401;50.792;4.352;2024-03-02T00:30:56;1.20;;;1.20;;
22468;SDS011;11401;50.792;4.352;2024-03-02T00:36:04;1.33;;;1.23;;
22468;SDS011;11401;50.792;4.352;2024-03-02T00:38:34;1.20;;;1.20;;
22468;SDS011;11401;50.792;4.352;2024-03-02T00:41:08;1.17;;;1.17;;
22468;SDS011;11401;50.792;4.352;2024-03-02T00:44:05;1.42;;;1.40;;
22468;SDS011;11401;50.792;4.352;2024-03-02T00:46:35;1.73;;;1.20;;
22468;SDS011;11401;50.792;4.352;2024-03-02T00:49:04;1.50;;;1.40;;
22468;SDS011;11401;50.792;4.352;2024-03-02T00:51:48;1.13;;;1.13;;
22468;SDS011;11401;50.792;4.352;2024-03-02T00:54:23;1.25;;;1.15;;
22468;SDS011;11401;50.792;4.352;2024-03-02T00:56:55;1.70;;;1.55;;
22468;SDS011;11401;50.792;4.352;2024-03-02T00:59:23;1.80;;;1.30;;
22468;SDS011;11401;50.792;4.352;2024-03-02T01:01:51;1.40;;;1.30;;
22468;SDS011;11401;50.792;4.352;2024-03-02T01:04:19;1.10;;;1.10;;
22468;SDS011;11401;50.792;4.352;2024-03-02T01:06:46;1.23;;;1.20;;
22468;SDS011;11401;50.792;4.352;2024-03-02T01:09:14;1.10;;;1.10;;
22468;SDS011;11401;50.792;4.352;2024-03-02T01:11:41;1.10;;;1.10;;
22468;SDS011;11401;50.792;4.352;2024-03-02T01:14:08;1.20;;;1.20;;
22468;SDS011;11401;50.792;4.352;2024-03-02T01:16:35;1.00;;;1.00;;
22468;SDS011;11401;50.792;4.352;2024-03-02T01:19:02;1.15;;;1.05;;
22468;SDS011;11401;50.792;4.352;2024-03-02T01:21:30;1.30;;;1.30;;
22468;SDS011;11401;50.792;4.352;2024-03-02T01:23:58;1.10;;;1.10;;
22468;SDS011;11401;50.792;4.352;2024-03-02T01:26:25;1.23;;;1.20;;
22468;SDS011;11401;50.792;4.352;2024-03-02T01:28:52;1.20;;;1.10;;
22468;SDS011;11401;50.792;4.352;2024-03-02T01:31:19;1.27;;;1.27;;
22468;SDS011;11401;50.792;4.352;2024-03-02T01:33:46;1.20;;;1.20;;
22468;SDS011;11401;50.792;4.352;2024-03-02T01:36:13;1.33;;;1.10;;
22468;SDS011;11401;50.792;4.352;2024-03-02T01:38:41;1.98;;;1.00;;
22468;SDS011;11401;50.792;4.352;2024-03-02T01:41:08;1.17;;;1.10;;
22468;SDS011;11401;50.792;4.352;2024-03-02T01:43:35;1.33;;;1.23;;
22468;SDS011;11401;50.792;4.352;2024-03-02T01:46:07;1.00;;;1.00;;
22468;SDS011;11401;50.792;4.352;2024-03-02T01:48:34;1.33;;;1.20;;
22468;SDS011;11401;50.792;4.352;2024-03-02T01:51:01;1.10;;;1.10;;
22468;SDS011;11401;50.792;4.352;2024-03-02T01:53:28;1.10;;;1.10;;
22468;SDS011;11401;50.792;4.352;2024-03-02T01:55:56;1.10;;;1.10;;
22468;SDS011;11401;50.792;4.352;2024-03-02T01:58:23;1.20;;;1.20;;
22468;SDS011;11401;50.792;4.352;2024-03-02T02:00:50;1.60;;;1.10;;
22468;SDS011;11401;50.792;4.352;2024-03-02T02:03:17;1.42;;;1.10;;
22468;SDS011;11401;50.792;4.352;2024-03-02T02:05:44;1.02;;;1.00;;
22468;SDS011;11401;50.792;4.352;2024-03-02T02:08:12;1.80;;;1.23;;
22468;SDS011;11401;50.792;4.352;2024-03-02T02:10:39;1.30;;;1.30;;
22468;SDS011;11401;50.792;4.352;2024-03-02T02:13:06;1.30;;;1.30;;
22468;SDS011;11401;50.792;4.352;2024-03-02T02:15:34;1.15;;;1.15;;
22468;SDS011;11401;50.792;4.352;2024-03-02T02:18:03;1.10;;;1.10;;
22468;SDS011;11401;50.792;4.352;2024-03-02T02:20:30;1.70;;;1.60;;
22468;SDS011;11401;50.792;4.352;2024-03-02T02:23:01;1.30;;;1.30;;
22468;SDS011;11401;50.792;4.352;2024-03-02T02:25:29;1.10;;;1.10;;
22468;SDS011;11401;50.792;4.352;2024-03-02T02:27:56;1.17;;;1.17;;
22468;SDS011;11401;50.792;4.352;2024-03-02T02:30:29;1.95;;;1.33;;
22468;SDS011;11401;50.792;4.352;2024-03-02T02:32:57;2.45;;;1.20;;
22468;SDS011;11401;50.792;4.352;2024-03-02T02:35:25;1.23;;;1.13;;
22468;SDS011;11401;50.792;4.352;2024-03-02T02:37:53;1.20;;;1.10;;
22468;SDS011;11401;50.792;4.352;2024-03-02T02:40:22;1.88;;;1.20;;
22468;SDS011;11401;50.792;4.352;2024-03-02T02:42:50;1.60;;;1.20;;
22468;SDS011;11401;50.792;4.352;2024-03-02T02:45:20;1.83;;;1.35;;
22468;SDS011;11401;50.792;4.352;2024-03-02T02:47:47;1.23;;;1.23;;
22468;SDS011;11401;50.792;4.352;2024-03-02T02:50:14;1.10;;;1.10;;
22468;SDS011;11401;50.792;4.352;2024-03-02T02:52:42;1.70;;;1.10;;
22468;SDS011;11401;50.792;4.352;2024-03-02T02:55:10;1.33;;;1.23;;
22468;SDS011;11401;50.792;4.352;2024-03-02T02:57:41;1.50;;;1.40;;
22468;SDS011;11401;50.792;4.352;2024-03-02T03:00:13;1.75;;;1.30;;
22468;SDS011;11401;50.792;4.352;2024-03-02T03:02:44;1.20;;;1.20;;
22468;SDS011;11401;50.792;4.352;2024-03-02T03:05:15;1.30;;;1.20;;
22468;SDS011;11401;50.792;4.352;2024-03-02T03:07:43;1.42;;;1.42;;
22468;SDS011;11401;50.792;4.352;2024-03-02T03:10:15;2.05;;;1.45;;
22468;SDS011;11401;50.792;4.352;2024-03-02T03:12:43;1.38;;;1.20;;
22468;SDS011;11401;50.792;4.352;2024-03-02T03:15:11;2.25;;;1.30;;
22468;SDS011;11401;50.792;4.352;2024-03-02T03:17:39;1.10;;;1.10;;
22468;SDS011;11401;50.792;4.352;2024-03-02T03:20:06;1.38;;;1.30;;
22468;SDS011;11401;50.792;4.352;2024-03-02T03:22:40;1.10;;;1.10;;
22468;SDS011;11401;50.792;4.352;2024-03-02T03:25:07;1.40;;;1.30;;
22468;SDS011;11401;50.792;4.352;2024-03-02T03:27:37;1.50;;;1.40;;
22468;SDS011;11401;50.792;4.352;2024-03-02T03:30:07;1.50;;;1.40;;
22468;SDS011;11401;50.792;4.352;2024-03-02T03:32:34;1.88;;;1.08;;
22468;SDS011;11401;50.792;4.352;2024-03-02T03:35:02;1.88;;;1.40;;
22468;SDS011;11401;50.792;4.352;2024-03-02T03:37:30;2.92;;;1.90;;
22468;SDS011;11401;50.792;4.352;2024-03-02T03:40:02;1.30;;;1.20;;
22468;SDS011;11401;50.792;4.352;2024-03-02T03:42:37;1.33;;;1.23;;
22468;SDS011;11401;50.792;4.352;2024-03-02T03:45:07;1.10;;;1.10;;
22468;SDS011;11401;50.792;4.352;2024-03-02T03:47:35;1.55;;;1.38;;
22468;SDS011;11401;50.792;4.352;2024-03-02T03:50:02;1.90;;;1.80;;
22468;SDS011;11401;50.792;4.352;2024-03-02T03:52:33;1.42;;;1.33;;
22468;SDS011;11401;50.792;4.352;2024-03-02T03:55:00;1.15;;;1.15;;
22468;SDS011;11401;50.792;4.352;2024-03-02T03:57:27;1.67;;;1.58;;
22468;SDS011;11401;50.792;4.352;2024-03-02T03:59:54;1.58;;;1.48;;
22468;SDS011;11401;50.792;4.352;2024-03-02T04:02:22;1.80;;;1.40;;
22468;SDS011;11401;50.792;4.352;2024-03-02T04:04:51;1.42;;;1.38;;
22468;SDS011;11401;50.792;4.352;2024-03-02T04:07:18;2.72;;;1.52;;
22468;SDS011;11401;50.792;4.352;2024-03-02T04:09:45;1.60;;;1.50;;
22468;SDS011;11401;50.792;4.352;2024-03-02T04:12:12;1.30;;;1.20;;
22468;SDS011;11401;50.792;4.352;2024-03-02T04:14:39;1.35;;;1.23;;
22468;SDS011;11401;50.792;4.352;2024-03-02T04:17:09;1.25;;;1.20;;
22468;SDS011;11401;50.792;4.352;2024-03-02T04:19:36;1.23;;;1.13;;
22468;SDS011;11401;50.792;4.352;2024-03-02T04:22:03;1.58;;;1.48;;
22468;SDS011;11401;50.792;4.352;2024-03-02T04:24:43;1.73;;;1.35;;
22468;SDS011;11401;50.792;4.352;2024-03-02T04:27:10;1.50;;;1.40;;
22468;SDS011;11401;50.792;4.352;2024-03-02T04:29:37;1.63;;;1.38;;
22468;SDS011;11401;50.792;4.352;2024-03-02T04:32:04;1.60;;;1.30;;
22468;SDS011;11401;50.792;4.352;2024-03-02T04:34:32;1.45;;;1.35;;
22468;SDS011;11401;50.792;4.352;2024-03-02T04:36:59;1.52;;;1.42;;
22468;SDS011;11401;50.792;4.352;2024-03-02T04:39:26;1.30;;;1.30;;
22468;SDS011;11401;50.792;4.352;2024-03-02T04:41:53;2.08;;;1.35;;
22468;SDS011;11401;50.792;4.352;2024-03-02T04:44:20;2.45;;;1.25;;
22468;SDS011;11401;50.792;4.352;2024-03-02T04:46:47;2.30;;;1.42;;
22468;SDS011;11401;50.792;4.352;2024-03-02T04:49:14;2.35;;;1.52;;
22468;SDS011;11401;50.792;4.352;2024-03-02T04:51:42;3.55;;;1.40;;
22468;SDS011;11401;50.792;4.352;2024-03-02T04:54:09;1.38;;;1.27;;
22468;SDS011;11401;50.792;4.352;2024-03-02T04:56:36;2.45;;;1.30;;
22468;SDS011;11401;50.792;4.352;2024-03-02T04:59:17;1.15;;;1.05;;
22468;SDS011;11401;50.792;4.352;2024-03-02T05:01:44;1.58;;;1.48;;
22468;SDS011;11401;50.792;4.352;2024-03-02T05:04:12;2.08;;;1.50;;
22468;SDS011;11401;50.792;4.352;2024-03-02T05:06:39;3.70;;;1.60;;
22468;SDS011;11401;50.792;4.352;2024-03-02T05:09:09;1.30;;;1.30;;
22468;SDS011;11401;50.792;4.352;2024-03-02T05:11:36;2.80;;;1.15;;
22468;SDS011;11401;50.792;4.352;2024-03-02T05:14:03;4.25;;;1.45;;
22468;SDS011;11401;50.792;4.352;2024-03-02T05:16:37;1.85;;;1.40;;
22468;SDS011;11401;50.792;4.352;2024-03-02T05:19:08;1.30;;;1.30;;
22468;SDS011;11401;50.792;4.352;2024-03-02T05:21:35;4.53;;;1.63;;
22468;SDS011;11401;50.792;4.352;2024-03-02T05:24:02;2.83;;;1.67;;
22468;SDS011;11401;50.792;4.352;2024-03-02T05:26:29;1.20;;;1.20;;
22468;SDS011;11401;50.792;4.352;2024-03-02T05:28:56;2.85;;;1.40;;
22468;SDS011;11401;50.792;4.352;2024-03-02T05:31:23;2.90;;;1.58;;
22468;SDS011;11401;50.792;4.352;2024-03-02T05:33:50;1.50;;;1.40;;
22468;SDS011;11401;50.792;4.352;2024-03-02T05:36:23;3.13;;;1.67;;
22468;SDS011;11401;50.792;4.352;2024-03-02T05:38:50;1.77;;;1.30;;
22468;SDS011;11401;50.792;4.352;2024-03-02T05:41:17;2.95;;;1.50;;
22468;SDS011;11401;50.792;4.352;2024-03-02T05:43:44;1.75;;;1.23;;
22468;SDS011;11401;50.792;4.352;2024-03-02T05:46:11;2.08;;;1.60;;
22468;SDS011;11401;50.792;4.352;2024-03-02T05:48:38;1.92;;;1.40;;
22468;SDS011;11401;50.792;4.352;2024-03-02T05:51:06;1.48;;;1.38;;
22468;SDS011;11401;50.792;4.352;2024-03-02T05:53:33;1.73;;;1.63;;
22468;SDS011;11401;50.792;4.352;2024-03-02T05:56:00;2.65;;;1.40;;
22468;SDS011;11401;50.792;4.352;2024-03-02T05:58:31;2.28;;;1.00;;
22468;SDS011;11401;50.792;4.352;2024-03-02T06:01:30;3.13;;;1.73;;
22468;SDS011;11401;50.792;4.352;2024-03-02T06:03:58;4.63;;;1.40;;
22468;SDS011;11401;50.792;4.352;2024-03-02T06:06:25;3.80;;;1.88;;
22468;SDS011;11401;50.792;4.352;2024-03-02T06:08:53;1.30;;;1.25;;
22468;SDS011;11401;50.792;4.352;2024-03-02T06:11:21;3.13;;;1.70;;
22468;SDS011;11401;50.792;4.352;2024-03-02T06:13:49;1.60;;;1.50;;
22468;SDS011;11401;50.792;4.352;2024-03-02T06:16:15;2.55;;;1.35;;
22468;SDS011;11401;50.792;4.352;2024-03-02T06:18:42;1.63;;;1.50;;
22468;SDS011;11401;50.792;4.352;2024-03-02T06:21:09;2.17;;;1.42;;
22468;SDS011;11401;50.792;4.352;2024-03-02T06:23:36;2.58;;;1.35;;
22468;SDS011;11401;50.792;4.352;2024-03-02T06:26:03;2.10;;;1.60;;
22468;SDS011;11401;50.792;4.352;2024-03-02T06:28:30;1.80;;;1.70;;
22468;SDS011;11401;50.792;4.352;2024-03-02T06:30:57;3.80;;;1.90;;
22468;SDS011;11401;50.792;4.352;2024-03-02T06:33:25;3.45;;;1.55;;
22468;SDS011;11401;50.792;4.352;2024-03-02T06:35:52;2.58;;;1.60;;
22468;SDS011;11401;50.792;4.352;2024-03-02T06:38:19;1.55;;;1.40;;
22468;SDS011;11401;50.792;4.352;2024-03-02T06:40:46;1.52;;;1.40;;
22468;SDS011;11401;50.792;4.352;2024-03-02T06:43:13;1.70;;;1.60;;
22468;SDS011;11401;50.792;4.352;2024-03-02T06:45:40;2.25;;;1.35;;
22468;SDS011;11401;50.792;4.352;2024-03-02T06:48:07;2.72;;;1.65;;
22468;SDS011;11401;50.792;4.352;2024-03-02T06:50:34;1.80;;;1.70;;
22468;SDS011;11401;50.792;4.352;2024-03-02T06:53:01;4.13;;;1.50;;
22468;SDS011;11401;50.792;4.352;2024-03-02T06:55:30;3.83;;;1.60;;
22468;SDS011;11401;50.792;4.352;2024-03-02T06:57:57;2.58;;;1.40;;
22468;SDS011;11401;50.792;4.352;2024-03-02T07:00:24;3.67;;;1.60;;
22468;SDS011;11401;50.792;4.352;2024-03-02T07:02:51;3.17;;;1.50;;
22468;SDS011;11401;50.792;4.352;2024-03-02T07:05:18;3.65;;;1.90;;
22468;SDS011;11401;50.792;4.352;2024-03-02T07:07:47;3.25;;;1.50;;
22468;SDS011;11401;50.792;4.352;2024-03-02T07:10:14;2.42;;;1.70;;
22468;SDS011;11401;50.792;4.352;2024-03-02T07:12:42;4.03;;;1.60;;
22468;SDS011;11401;50.792;4.352;2024-03-02T07:15:11;4.20;;;1.58;;
22468;SDS011;11401;50.792;4.352;2024-03-02T07:17:55;1.80;;;1.70;;
22468;SDS011;11401;50.792;4.352;2024-03-02T07:20:22;2.70;;;1.67;;
22468;SDS011;11401;50.792;4.352;2024-03-02T07:22:50;2.50;;;2.13;;
22468;SDS011;11401;50.792;4.352;2024-03-02T07:25:17;1.38;;;1.23;;
22468;SDS011;11401;50.792;4.352;2024-03-02T07:27:47;1.90;;;1.70;;
22468;SDS011;11401;50.792;4.352;2024-03-02T07:30:15;2.35;;;2.15;;
22468;SDS011;11401;50.792;4.352;2024-03-02T07:32:43;3.88;;;1.75;;
22468;SDS011;11401;50.792;4.352;2024-03-02T07:35:12;3.72;;;1.77;;
22468;SDS011;11401;50.792;4.352;2024-03-02T07:37:43;4.35;;;1.80;;
22468;SDS011;11401;50.792;4.352;2024-03-02T07:40:11;1.42;;;1.33;;
22468;SDS011;11401;50.792;4.352;2024-03-02T07:42:38;1.75;;;1.65;;
22468;SDS011;11401;50.792;4.352;2024-03-02T07:45:06;2.58;;;1.52;;
22468;SDS011;11401;50.792;4.352;2024-03-02T07:47:34;2.03;;;1.55;;
22468;SDS011;11401;50.792;4.352;2024-03-02T07:50:02;2.90;;;1.77;;
22468;SDS011;11401;50.792;4.352;2024-03-02T07:52:29;1.63;;;1.52;;
22468;SDS011;11401;50.792;4.352;2024-03-02T07:54:56;1.52;;;1.42;;
22468;SDS011;11401;50.792;4.352;2024-03-02T07:57:23;4.72;;;1.70;;
22468;SDS011;11401;50.792;4.352;2024-03-02T07:59:50;3.85;;;1.70;;
22468;SDS011;11401;50.792;4.352;2024-03-02T08:02:17;3.88;;;1.40;;
22468;SDS011;11401;50.792;4.352;2024-03-02T08:04:45;2.88;;;1.80;;
22468;SDS011;11401;50.792;4.352;2024-03-02T08:07:12;2.72;;;1.35;;
22468;SDS011;11401;50.792;4.352;2024-03-02T08:09:40;1.98;;;1.83;;
22468;SDS011;11401;50.792;4.352;2024-03-02T08:12:07;3.28;;;1.90;;
22468;SDS011;11401;50.792;4.352;2024-03-02T08:14:35;3.20;;;1.63;;
22468;SDS011;11401;50.792;4.352;2024-03-02T08:17:02;2.85;;;1.60;;
22468;SDS011;11401;50.792;4.352;2024-03-02T08:19:36;3.25;;;1.58;;
22468;SDS011;11401;50.792;4.352;2024-03-02T08:22:03;3.50;;;1.83;;
22468;SDS011;11401;50.792;4.352;2024-03-02T08:24:31;5.28;;;2.20;;
22468;SDS011;11401;50.792;4.352;2024-03-02T08:27:01;2.88;;;1.70;;
22468;SDS011;11401;50.792;4.352;2024-03-02T08:29:28;1.92;;;1.70;;
22468;SDS011;11401;50.792;4.352;2024-03-02T08:31:56;2.58;;;1.70;;
22468;SDS011;11401;50.792;4.352;2024-03-02T08:34:22;4.00;;;1.80;;
22468;SDS011;11401;50.792;4.352;2024-03-02T08:36:49;5.68;;;2.10;;
22468;SDS011;11401;50.792;4.352;2024-03-02T08:39:17;2.83;;;1.67;;
22468;SDS011;11401;50.792;4.352;2024-03-02T08:41:46;3.47;;;1.67;;
22468;SDS011;11401;50.792;4.352;2024-03-02T08:44:13;4.45;;;2.17;;
22468;SDS011;11401;50.792;4.352;2024-03-02T08:46:41;5.47;;;1.85;;
22468;SDS011;11401;50.792;4.352;2024-03-02T08:49:08;5.97;;;1.63;;
22468;SDS011;11401;50.792;4.352;2024-03-02T08:51:35;1.42;;;1.30;;
22468;SDS011;11401;50.792;4.352;2024-03-02T08:54:03;1.30;;;1.17;;
22468;SDS011;11401;50.792;4.352;2024-03-02T08:56:31;3.78;;;1.67;;
22468;SDS011;11401;50.792;4.352;2024-03-02T08:58:58;2.25;;;1.40;;
22468;SDS011;11401;50.792;4.352;2024-03-02T09:01:25;3.63;;;2.05;;
22468;SDS011;11401;50.792;4.352;2024-03-02T09:03:52;3.30;;;1.67;;
22468;SDS011;11401;50.792;4.352;2024-03-02T09:06:19;3.25;;;1.70;;
22468;SDS011;11401;50.792;4.352;2024-03-02T09:08:47;2.60;;;1.48;;
22468;SDS011;11401;50.792;4.352;2024-03-02T09:11:15;2.30;;;1.40;;
22468;SDS011;11401;50.792;4.352;2024-03-02T09:13:43;1.73;;;1.30;;
22468;SDS011;11401;50.792;4.352;2024-03-02T09:16:10;4.22;;;1.65;;
22468;SDS011;11401;50.792;4.352;2024-03-02T09:18:38;2.88;;;1.55;;
22468;SDS011;11401;50.792;4.352;2024-03-02T09:21:05;3.38;;;1.67;;
22468;SDS011;11401;50.792;4.352;2024-03-02T09:23:32;5.53;;;1.52;;
22468;SDS011;11401;50.792;4.352;2024-03-02T09:25:59;5.10;;;1.58;;
22468;SDS011;11401;50.792;4.352;2024-03-02T09:28:27;2.67;;;1.50;;
22468;SDS011;11401;50.792;4.352;2024-03-02T09:30:54;3.65;;;1.63;;
22468;SDS011;11401;50.792;4.352;2024-03-02T09:33:26;6.22;;;1.70;;
22468;SDS011;11401;50.792;4.352;2024-03-02T09:35:53;9.82;;;1.85;;
22468;SDS011;11401;50.792;4.352;2024-03-02T09:38:20;5.95;;;1.80;;
22468;SDS011;11401;50.792;4.352;2024-03-02T09:40:48;29.70;;;4.32;;
22468;SDS011;11401;50.792;4.352;2024-03-02T09:43:15;60.08;;;6.32;;
22468;SDS011;11401;50.792;4.352;2024-03-02T09:45:42;53.90;;;5.00;;
22468;SDS011;11401;50.792;4.352;2024-03-02T09:48:11;78.55;;;8.77;;
22468;SDS011;11401;50.792;4.352;2024-03-02T09:50:38;92.72;;;6.57;;
22468;SDS011;11401;50.792;4.352;2024-03-02T09:53:06;84.82;;;8.00;;
22468;SDS011;11401;50.792;4.352;2024-03-02T09:55:35;66.60;;;7.07;;
22468;SDS011;11401;50.792;4.352;2024-03-02T09:58:02;83.03;;;6.50;;
22468;SDS011;11401;50.792;4.352;2024-03-02T10:00:30;36.35;;;3.65;;
22468;SDS011;11401;50.792;4.352;2024-03-02T10:02:57;81.95;;;8.15;;
22468;SDS011;11401;50.792;4.352;2024-03-02T10:05:25;42.03;;;5.07;;
22468;SDS011;11401;50.792;4.352;2024-03-02T10:08:02;35.80;;;4.65;;
22468;SDS011;11401;50.792;4.352;2024-03-02T10:10:39;104.97;;;7.95;;
22468;SDS011;11401;50.792;4.352;2024-03-02T10:13:10;69.00;;;6.68;;
22468;SDS011;11401;50.792;4.352;2024-03-02T10:15:39;53.25;;;6.22;;
22468;SDS011;11401;50.792;4.352;2024-03-02T10:18:11;55.38;;;5.95;;
22468;SDS011;11401;50.792;4.352;2024-03-02T10:20:39;76.00;;;10.38;;
22468;SDS011;11401;50.792;4.352;2024-03-02T10:25:40;109.07;;;10.52;;
22468;SDS011;11401;50.792;4.352;2024-03-02T10:28:20;80.53;;;8.40;;
22468;SDS011;11401;50.792;4.352;2024-03-02T10:30:47;93.15;;;9.02;;
22468;SDS011;11401;50.792;4.352;2024-03-02T10:33:17;106.78;;;10.13;;
22468;SDS011;11401;50.792;4.352;2024-03-02T10:35:44;96.95;;;9.93;;
22468;SDS011;11401;50.792;4.352;2024-03-02T10:38:11;87.82;;;10.20;;
22468;SDS011;11401;50.792;4.352;2024-03-02T10:40:39;95.55;;;8.27;;
22468;SDS011;11401;50.792;4.352;2024-03-02T10:43:06;90.03;;;8.57;;
22468;SDS011;11401;50.792;4.352;2024-03-02T10:45:34;85.35;;;9.48;;
22468;SDS011;11401;50.792;4.352;2024-03-02T10:48:02;50.50;;;6.65;;
22468;SDS011;11401;50.792;4.352;2024-03-02T10:50:29;65.18;;;6.65;;
22468;SDS011;11401;50.792;4.352;2024-03-02T10:52:57;47.97;;;6.57;;
22468;SDS011;11401;50.792;4.352;2024-03-02T10:55:24;60.70;;;8.95;;
22468;SDS011;11401;50.792;4.352;2024-03-02T10:57:52;109.07;;;12.07;;
22468;SDS011;11401;50.792;4.352;2024-03-02T11:00:24;127.88;;;11.93;;
22468;SDS011;11401;50.792;4.352;2024-03-02T11:02:57;130.93;;;11.30;;
22468;SDS011;11401;50.792;4.352;2024-03-02T11:05:34;99.28;;;9.90;;
22468;SDS011;11401;50.792;4.352;2024-03-02T11:08:06;116.65;;;11.80;;
22468;SDS011;11401;50.792;4.352;2024-03-02T11:10:37;112.25;;;12.82;;
22468;SDS011;11401;50.792;4.352;2024-03-02T11:13:14;137.20;;;13.07;;
22468;SDS011;11401;50.792;4.352;2024-03-02T11:15:43;154.32;;;13.07;;
22468;SDS011;11401;50.792;4.352;2024-03-02T11:18:11;107.78;;;10.38;;
22468;SDS011;11401;50.792;4.352;2024-03-02T11:20:39;128.35;;;10.75;;
22468;SDS011;11401;50.792;4.352;2024-03-02T11:23:10;182.25;;;18.20;;
22468;SDS011;11401;50.792;4.352;2024-03-02T11:25:37;174.13;;;14.50;;
22468;SDS011;11401;50.792;4.352;2024-03-02T11:28:06;188.48;;;17.17;;
22468;SDS011;11401;50.792;4.352;2024-03-02T11:33:07;193.90;;;19.20;;
22468;SDS011;11401;50.792;4.352;2024-03-02T11:35:38;165.90;;;17.23;;
22468;SDS011;11401;50.792;4.352;2024-03-02T11:38:13;136.07;;;14.82;;
22468;SDS011;11401;50.792;4.352;2024-03-02T11:40:40;206.30;;;20.63;;
22468;SDS011;11401;50.792;4.352;2024-03-02T11:43:08;114.38;;;15.07;;
22468;SDS011;11401;50.792;4.352;2024-03-02T11:45:36;112.07;;;11.40;;
22468;SDS011;11401;50.792;4.352;2024-03-02T11:48:09;112.80;;;12.23;;
22468;SDS011;11401;50.792;4.352;2024-03-02T11:50:40;75.85;;;9.63;;
22468;SDS011;11401;50.792;4.352;2024-03-02T11:53:10;76.97;;;9.20;;
22468;SDS011;11401;50.792;4.352;2024-03-02T11:55:40;106.45;;;9.77;;
22468;SDS011;11401;50.792;4.352;2024-03-02T11:58:07;85.10;;;9.20;;
22468;SDS011;11401;50.792;4.352;2024-03-02T12:00:35;82.32;;;9.38;;
22468;SDS011;11401;50.792;4.352;2024-03-02T12:03:06;66.47;;;8.00;;
22468;SDS011;11401;50.792;4.352;2024-03-02T12:05:36;43.22;;;5.45;;
22468;SDS011;11401;50.792;4.352;2024-03-02T12:08:04;51.55;;;6.05;;
22468;SDS011;11401;50.792;4.352;2024-03-02T12:10:33;41.13;;;5.82;;
22468;SDS011;11401;50.792;4.352;2024-03-02T12:13:03;33.38;;;4.25;;
22468;SDS011;11401;50.792;4.352;2024-03-02T12:15:34;27.45;;;4.00;;
22468;SDS011;11401;50.792;4.352;2024-03-02T12:18:04;22.52;;;4.22;;
22468;SDS011;11401;50.792;4.352;2024-03-02T12:20:32;34.10;;;4.22;;
22468;SDS011;11401;50.792;4.352;2024-03-02T12:23:00;21.70;;;4.20;;
22468;SDS011;11401;50.792;4.352;2024-03-02T12:25:29;13.90;;;3.65;;
22468;SDS011;11401;50.792;4.352;2024-03-02T12:27:58;26.02;;;4.43;;
22468;SDS011;11401;50.792;4.352;2024-03-02T12:30:29;23.23;;;4.25;;
22468;SDS011;11401;50.792;4.352;2024-03-02T12:32:57;18.52;;;3.20;;
22468;SDS011;11401;50.792;4.352;2024-03-02T12:35:25;12.07;;;2.78;;
22468;SDS011;11401;50.792;4.352;2024-03-02T12:37:53;29.48;;;4.32;;
22468;SDS011;11401;50.792;4.352;2024-03-02T12:40:21;13.55;;;3.70;;
22468;SDS011;11401;50.792;4.352;2024-03-02T12:42:50;9.20;;;2.45;;
22468;SDS011;11401;50.792;4.352;2024-03-02T12:45:18;13.60;;;3.28;;
22468;SDS011;11401;50.792;4.352;2024-03-02T12:47:51;9.70;;;2.63;;
22468;SDS011;11401;50.792;4.352;2024-03-02T12:50:19;10.70;;;2.90;;
22468;SDS011;11401;50.792;4.352;2024-03-02T12:52:53;16.15;;;3.10;;
22468;SDS011;11401;50.792;4.352;2024-03-02T12:55:21;7.95;;;2.70;;
22468;SDS011;11401;50.792;4.352;2024-03-02T12:57:50;5.20;;;2.28;;
22468;SDS011;11401;50.792;4.352;2024-03-02T13:00:18;11.32;;;3.05;;
22468;SDS011;11401;50.792;4.352;2024-03-02T13:02:46;6.63;;;2.38;;
22468;SDS011;11401;50.792;4.352;2024-03-02T13:05:15;8.82;;;2.42;;
22468;SDS011;11401;50.792;4.352;2024-03-02T13:07:42;5.65;;;1.92;;
22468;SDS011;11401;50.792;4.352;2024-03-02T13:10:12;3.42;;;1.98;;
22468;SDS011;11401;50.792;4.352;2024-03-02T13:12:39;6.55;;;2.33;;
22468;SDS011;11401;50.792;4.352;2024-03-02T13:15:07;4.15;;;1.85;;
22468;SDS011;11401;50.792;4.352;2024-03-02T13:17:38;6.55;;;2.03;;
22468;SDS011;11401;50.792;4.352;2024-03-02T13:20:06;3.35;;;1.88;;
22468;SDS011;11401;50.792;4.352;2024-03-02T13:22:37;5.88;;;2.25;;
22468;SDS011;11401;50.792;4.352;2024-03-02T13:25:05;5.03;;;1.73;;
22468;SDS011;11401;50.792;4.352;2024-03-02T13:27:33;6.38;;;1.88;;
22468;SDS011;11401;50.792;4.352;2024-03-02T13:30:03;3.85;;;1.50;;
22468;SDS011;11401;50.792;4.352;2024-03-02T13:32:32;6.90;;;1.85;;
22468;SDS011;11401;50.792;4.352;2024-03-02T13:34:59;4.47;;;1.50;;
22468;SDS011;11401;50.792;4.352;2024-03-02T13:37:26;2.17;;;1.30;;
22468;SDS011;11401;50.792;4.352;2024-03-02T13:39:53;3.80;;;1.65;;
22468;SDS011;11401;50.792;4.352;2024-03-02T13:42:20;5.22;;;1.80;;
22468;SDS011;11401;50.792;4.352;2024-03-02T13:44:48;4.97;;;1.40;;
22468;SDS011;11401;50.792;4.352;2024-03-02T13:47:17;3.45;;;1.65;;
22468;SDS011;11401;50.792;4.352;2024-03-02T13:49:44;2.90;;;1.92;;
22468;SDS011;11401;50.792;4.352;2024-03-02T13:52:14;6.70;;;2.65;;
22468;SDS011;11401;50.792;4.352;2024-03-02T13:54:44;4.53;;;1.50;;
22468;SDS011;11401;50.792;4.352;2024-03-02T13:57:11;3.38;;;1.60;;
22468;SDS011;11401;50.792;4.352;2024-03-02T13:59:40;2.28;;;1.63;;
22468;SDS011;11401;50.792;4.352;2024-03-02T14:02:08;2.42;;;1.60;;
22468;SDS011;11401;50.792;4.352;2024-03-02T14:04:35;1.52;;;1.35;;
22468;SDS011;11401;50.792;4.352;2024-03-02T14:07:05;12.57;;;3.15;;
22468;SDS011;11401;50.792;4.352;2024-03-02T14:09:35;4.40;;;1.65;;
22468;SDS011;11401;50.792;4.352;2024-03-02T14:12:03;3.22;;;1.40;;
22468;SDS011;11401;50.792;4.352;2024-03-02T14:14:31;3.80;;;1.40;;
22468;SDS011;11401;50.792;4.352;2024-03-02T14:16:59;3.22;;;1.30;;
22468;SDS011;11401;50.792;4.352;2024-03-02T14:19:30;4.35;;;1.55;;
22468;SDS011;11401;50.792;4.352;2024-03-02T14:21:57;2.03;;;1.30;;
22468;SDS011;11401;50.792;4.352;2024-03-02T14:24:24;3.35;;;1.50;;
22468;SDS011;11401;50.792;4.352;2024-03-02T14:26:52;2.92;;;1.77;;
22468;SDS011;11401;50.792;4.352;2024-03-02T14:29:28;1.38;;;1.27;;
22468;SDS011;11401;50.792;4.352;2024-03-02T14:31:56;2.15;;;1.20;;
22468;SDS011;11401;50.792;4.352;2024-03-02T14:34:23;3.83;;;1.50;;
22468;SDS011;11401;50.792;4.352;2024-03-02T14:36:50;1.35;;;1.10;;
22468;SDS011;11401;50.792;4.352;2024-03-02T14:39:17;1.67;;;1.27;;
22468;SDS011;11401;50.792;4.352;2024-03-02T14:41:46;2.60;;;1.23;;
22468;SDS011;11401;50.792;4.352;2024-03-02T14:44:13;2.30;;;1.27;;
22468;SDS011;11401;50.792;4.352;2024-03-02T14:46:40;2.33;;;1.40;;
22468;SDS011;11401;50.792;4.352;2024-03-02T14:49:09;3.03;;;1.65;;
22468;SDS011;11401;50.792;4.352;2024-03-02T14:51:37;1.67;;;1.33;;
22468;SDS011;11401;50.792;4.352;2024-03-02T14:54:04;2.97;;;1.40;;
22468;SDS011;11401;50.792;4.352;2024-03-02T14:56:31;1.35;;;1.20;;
22468;SDS011;11401;50.792;4.352;2024-03-02T14:58:59;2.33;;;1.05;;